CYRQCYND

Guest
Details From CYRQ - TROIS RIVIERES
To CYND - GATINEAU
Flight Number -
Tags generated
Created
Modified
Stats Distance 130 nm / 242 km
Max Altitude 10,600 ft / 3,231 m
Waypoints 4
Social Downloads 0
Likes 0
Share VATSIM

Download

Looking for another format? Having issues loading an existing format? Contact us
Advertisement - Login to hide

Notes

Basic altitude profile: - Ascent Rate: 500ft/min - Ascent Speed: 100kts - Cruise Altitude: 2500ft - Cruise Speed: 125kts - Descent Rate: 500ft/min - Descent Speed: 100kts Options: - Use NATs: yes - Use PACOTS: yes - Use low airways: yes - Use high airways: no

Route

CYRQ YMX V360 BIVGO CYND

ID Type Via Altitude Latitude Longitude Leg Dist Tot Dist Heading (true) Name
O CYRQ APT - 0 ft / 0 m 46.35274˚ -72.67944˚ - 0 nm - TROIS RIVIERES
YMX VOR - 10,600 ft / 3,231 m 45.88833˚ -74.37567˚ 75 nm 75 nm 249° / 248° -
BIVGO FIX V360 (AWY-LO) 4,500 ft / 1,372 m 45.65015˚ -75.19837˚ 37 nm 113 nm 248° / 247° -
O CYND APT - 0 ft / 0 m 45.52169˚ -75.56359˚ 17 nm 130 nm 243° / 243° GATINEAU

Altitude Profile

Advertisement - Login to hide

CYRQ

Details ICAO CYRQ (YRQ)
Name TROIS RIVIERES
Region Canada
Timezone America/Montreal (UTC-5.0)
Stats Elevation 199 ft / 61 m (AMSL)
Location 46.352741° -72.679441°
Runways 1
Magnetic Variation 15.122° W

METAR

CYRQ 151700Z AUTO 19004KT 170V240 9SM OVC065 M16/M19 A2997 RMK SLP155

Decode

TAF

TAF CYRQ 151338Z 1514/1602 21005KT P6SM SKC FM151800 19008KT P6SM FEW080 FM152000 19008KT P6SM BKN040 BECMG 1522/1524 03008KT RMK FCST BASED ON AUTO OBS. NXT FCST BY 152000Z

Decode

Departure Runways

ID Width Length Bearing (true) Bearing (mag) Surface Threshold Offset Overrun Length
05 150 ft / 46 m 6,001 ft / 1,829 m 31.33° 46.45° Asphalt 0 ft / 0 m 300 ft / 91 m
23 150 ft / 46 m 6,001 ft / 1,829 m 211.34° 226.46° Asphalt 0 ft / 0 m 300 ft / 91 m

CYND

Details ICAO CYND (YND)
Name GATINEAU
Region Canada
Timezone America/Montreal (UTC-5.0)
Stats Elevation 211 ft / 64 m (AMSL)
Location 45.521693° -75.563587°
Runways 1
Magnetic Variation 13.369° W

METAR

CYND 151716Z 11005KT 4SM -SN BKN015 OVC030 M14/M17 A2993 RMK SC6SC2 SLP142

Decode

TAF

TAF AMD CYND 151644Z 1516/1602 09005KT P6SM -SN OVC030 TEMPO 1516/1521 2SM -SN OVC020 FM152100 07008KT 4SM -SN OVC030 TEMPO 1521/1602 2SM -SN OVC020 RMK NXT FCST BY 151800Z

Decode

Destination Runways

ID Width Length Bearing (true) Bearing (mag) Surface Threshold Offset Overrun Length
09 150 ft / 46 m 5,983 ft / 1,824 m 75.36° 88.73° Asphalt 0 ft / 0 m 200 ft / 61 m
27 150 ft / 46 m 5,983 ft / 1,824 m 255.37° 268.74° Asphalt 0 ft / 0 m 200 ft / 61 m

Popular Alternatives